Time;durP1;ratioP1;P1;durP2;ratioP2;P2;SDS_P1;SDS_P2;PMS_P1;PMS_P2;Temp;Humidity;BMP_temperature;BMP_pressure;BME280_temperature;BME280_humidity;BME280_pressure;Samples;Min_cycle;Max_cycle;Signal;HPM_P1;HPM_P2
2021/12/16 00:02:24;;;;;;;;;49.25;40.25;;;;;;;;5056699;28;45456;-71
2021/12/16 00:29:41;;;;;;;;;59.25;46.00;;;;;;;;4955006;28;45593;-69
2021/12/16 00:34:14;;;;;;;;;58.75;46.75;;;;;;;;4951133;28;45532;-69
2021/12/16 00:36:40;;;;;;;;;56.25;46.00;;;;;;;;4954186;28;45675;-70
2021/12/16 00:39:08;;;;;;;;;55.75;45.00;;;;;;;;4949389;28;45556;-70
2021/12/16 00:41:34;;;;;;;;;54.75;44.25;;;;;;;;4952591;28;45437;-70
2021/12/16 00:54:32;;;;;;;;;56.50;46.25;;;;;;;;4910208;28;45517;-69
2021/12/16 00:57:07;;;;;;;;;56.75;47.75;;;;;;;;4935313;28;47516;-70
2021/12/16 00:59:33;;;;;;;;;58.00;48.25;;;;;;;;4938216;28;45612;-69
2021/12/16 01:34:24;;;;;;;;;56.75;46.75;;;;;;;;5013287;28;45417;-71
2021/12/16 01:54:53;;;;;;;;;48.50;39.00;;;;;;;;5013402;28;45391;-71
2021/12/16 01:57:31;;;;;;;;;54.00;44.00;;;;;;;;5012645;28;45312;-70
2021/12/16 02:00:06;;;;;;;;;50.50;40.75;;;;;;;;5014669;28;48441;-70
2021/12/16 02:05:21;;;;;;;;;45.75;39.50;;;;;;;;5003212;28;45377;-70
2021/12/16 02:10:35;;;;;;;;;46.50;38.00;;;;;;;;4998390;28;46923;-70
2021/12/16 02:29:44;;;;;;;;;44.75;39.75;;;;;;;;5034554;28;45513;-70
2021/12/16 02:35:13;;;;;;;;;53.00;45.00;;;;;;;;5012240;28;45294;-70
2021/12/16 02:37:45;;;;;;;;;55.75;45.00;;;;;;;;5012439;28;45494;-71
2021/12/16 02:40:12;;;;;;;;;55.25;46.25;;;;;;;;5012265;28;45419;-70
2021/12/16 02:42:50;;;;;;;;;53.50;45.75;;;;;;;;5012771;28;47702;-70
2021/12/16 02:50:43;;;;;;;;;51.50;43.00;;;;;;;;5012166;28;45516;-69
2021/12/16 02:53:08;;;;;;;;;54.00;45.50;;;;;;;;5011997;28;45280;-69
2021/12/16 02:55:34;;;;;;;;;52.50;42.75;;;;;;;;5013626;28;45327;-70
2021/12/16 02:58:00;;;;;;;;;45.25;39.00;;;;;;;;5012183;28;45304;-70
2021/12/16 03:00:32;;;;;;;;;49.75;42.25;;;;;;;;4994160;28;45422;-70
2021/12/16 03:02:58;;;;;;;;;48.75;41.75;;;;;;;;4994918;28;47687;-70
2021/12/16 03:05:23;;;;;;;;;43.00;39.00;;;;;;;;5011633;28;45454;-70
2021/12/16 03:07:49;;;;;;;;;53.50;42.25;;;;;;;;5012146;28;45457;-69
2021/12/16 03:13:03;;;;;;;;;49.75;40.00;;;;;;;;5031341;28;46523;-69
2021/12/16 03:18:34;;;;;;;;;52.25;44.25;;;;;;;;5034095;28;45463;-69
2021/12/16 03:21:05;;;;;;;;;54.50;45.50;;;;;;;;5032422;28;45488;-70
2021/12/16 03:31:30;;;;;;;;;52.00;42.50;;;;;;;;5037237;28;45298;-70
2021/12/16 03:36:47;;;;;;;;;50.75;42.00;;;;;;;;5036264;28;45182;-69
2021/12/16 03:39:12;;;;;;;;;46.50;38.25;;;;;;;;5036300;28;45413;-70
2021/12/16 03:41:37;;;;;;;;;46.50;40.75;;;;;;;;5037062;28;45321;-70
2021/12/16 03:44:06;;;;;;;;;53.25;42.75;;;;;;;;5035605;28;47635;-70
2021/12/16 03:46:35;;;;;;;;;51.50;41.75;;;;;;;;5037217;28;45484;-69
2021/12/16 03:49:17;;;;;;;;;54.50;44.00;;;;;;;;5035651;28;45434;-69
2021/12/16 03:51:42;;;;;;;;;51.75;41.75;;;;;;;;5031986;28;45404;-70
2021/12/16 03:54:10;;;;;;;;;49.50;41.75;;;;;;;;5036804;28;45625;-70
2021/12/16 03:56:37;;;;;;;;;48.75;41.50;;;;;;;;5036562;28;45307;-70
2021/12/16 03:59:02;;;;;;;;;51.25;42.00;;;;;;;;5036964;28;45303;-69
2021/12/16 04:01:29;;;;;;;;;57.50;46.75;;;;;;;;5036891;28;45246;-70
2021/12/16 04:03:55;;;;;;;;;49.75;41.00;;;;;;;;5035690;28;47696;-70
2021/12/16 04:06:22;;;;;;;;;44.25;39.75;;;;;;;;5036040;28;45460;-69
2021/12/16 04:08:48;;;;;;;;;52.25;44.00;;;;;;;;5036688;28;45708;-70
2021/12/16 04:11:21;;;;;;;;;50.25;40.25;;;;;;;;5036562;28;45316;-70
2021/12/16 04:13:59;;;;;;;;;55.00;44.50;;;;;;;;5036590;28;46559;-71
2021/12/16 04:16:26;;;;;;;;;52.75;44.25;;;;;;;;5020869;28;45434;-70
2021/12/16 04:18:52;;;;;;;;;51.00;43.50;;;;;;;;5036676;28;45463;-69
2021/12/16 04:21:19;;;;;;;;;52.75;43.75;;;;;;;;5038769;28;45501;-69
2021/12/16 04:23:45;;;;;;;;;50.25;43.75;;;;;;;;5056452;28;45303;-69
2021/12/16 04:26:10;;;;;;;;;48.75;41.50;;;;;;;;5038246;28;45438;-70
2021/12/16 04:28:35;;;;;;;;;52.25;40.25;;;;;;;;5056333;28;45448;-69
2021/12/16 04:31:01;;;;;;;;;54.00;45.25;;;;;;;;5056880;28;45329;-68
2021/12/16 04:33:28;;;;;;;;;54.25;45.00;;;;;;;;5057026;28;46293;-71
2021/12/16 04:35:53;;;;;;;;;56.25;45.25;;;;;;;;5056315;28;45523;-70
2021/12/16 04:38:19;;;;;;;;;52.25;43.50;;;;;;;;5056429;28;45555;-70
2021/12/16 04:40:45;;;;;;;;;54.25;46.75;;;;;;;;5056337;28;45378;-70
2021/12/16 04:43:18;;;;;;;;;51.75;41.25;;;;;;;;5056165;28;46524;-70
2021/12/16 04:45:43;;;;;;;;;48.25;41.50;;;;;;;;5031370;28;45466;-71
2021/12/16 04:48:09;;;;;;;;;56.00;47.50;;;;;;;;5055979;28;45417;-71
2021/12/16 04:50:34;;;;;;;;;49.50;42.75;;;;;;;;5037838;28;45564;-70
2021/12/16 04:52:59;;;;;;;;;56.75;45.50;;;;;;;;5037877;28;47539;-70
2021/12/16 04:55:24;;;;;;;;;48.25;39.75;;;;;;;;5038225;28;45504;-71
2021/12/16 04:57:50;;;;;;;;;50.00;41.75;;;;;;;;5056632;28;45433;-70
2021/12/16 05:00:17;;;;;;;;;49.75;41.75;;;;;;;;5056451;28;45439;-70
2021/12/16 05:02:42;;;;;;;;;46.00;40.25;;;;;;;;5055621;28;45852;-71
2021/12/16 05:05:08;;;;;;;;;53.00;44.25;;;;;;;;5055843;28;45496;-70
2021/12/16 05:07:33;;;;;;;;;53.75;43.75;;;;;;;;5037948;28;45446;-70
2021/12/16 05:10:07;;;;;;;;;57.25;47.25;;;;;;;;5056209;28;45358;-70
2021/12/16 05:12:36;;;;;;;;;52.25;44.25;;;;;;;;5054846;28;46067;-71
2021/12/16 05:15:03;;;;;;;;;49.50;39.00;;;;;;;;5055595;28;45431;-71
2021/12/16 05:17:34;;;;;;;;;53.75;42.50;;;;;;;;5037653;28;45341;-71
2021/12/16 05:20:05;;;;;;;;;54.00;45.00;;;;;;;;5055393;28;45422;-70
2021/12/16 05:25:33;;;;;;;;;52.75;44.25;;;;;;;;5039726;28;45355;-69
2021/12/16 05:27:59;;;;;;;;;53.75;44.00;;;;;;;;5053172;28;45366;-71
2021/12/16 05:30:24;;;;;;;;;55.50;47.00;;;;;;;;5037897;28;45541;-70
2021/12/16 05:32:49;;;;;;;;;52.75;42.00;;;;;;;;5037029;28;47834;-70
2021/12/16 05:35:19;;;;;;;;;54.25;45.50;;;;;;;;5037458;28;46100;-68
2021/12/16 05:37:45;;;;;;;;;52.25;43.75;;;;;;;;5037431;28;45568;-70
2021/12/16 05:40:12;;;;;;;;;51.50;43.00;;;;;;;;5055166;28;45335;-70
2021/12/16 05:42:37;;;;;;;;;55.00;45.75;;;;;;;;5037767;28;47709;-70
2021/12/16 05:45:03;;;;;;;;;52.00;43.00;;;;;;;;5055395;28;45455;-70
2021/12/16 05:47:28;;;;;;;;;51.50;41.50;;;;;;;;5037070;28;45398;-70
2021/12/16 05:49:54;;;;;;;;;54.00;42.75;;;;;;;;5054544;28;45449;-70
2021/12/16 05:52:19;;;;;;;;;49.50;41.25;;;;;;;;5055316;28;45396;-69
2021/12/16 05:54:44;;;;;;;;;54.75;45.25;;;;;;;;5037844;28;46365;-70
2021/12/16 05:57:09;;;;;;;;;51.75;44.00;;;;;;;;5037157;28;45456;-70
2021/12/16 05:59:35;;;;;;;;;52.75;43.50;;;;;;;;5055134;28;45382;-69
2021/12/16 06:02:00;;;;;;;;;54.00;45.50;;;;;;;;5054723;28;45982;-71
2021/12/16 06:04:25;;;;;;;;;49.25;41.00;;;;;;;;5054974;28;45408;-71
2021/12/16 06:06:51;;;;;;;;;50.50;42.50;;;;;;;;5055212;28;45404;-69
2021/12/16 06:09:16;;;;;;;;;51.00;42.25;;;;;;;;5055414;28;45374;-69
2021/12/16 06:11:43;;;;;;;;;53.50;41.50;;;;;;;;5054819;28;46736;-69
2021/12/16 06:22:32;;;;;;;;;51.75;43.25;;;;;;;;5054783;28;45301;-70
2021/12/16 06:27:45;;;;;;;;;57.75;44.50;;;;;;;;5055220;28;45284;-70
2021/12/16 06:30:11;;;;;;;;;55.00;44.50;;;;;;;;5054498;28;45568;-69
2021/12/16 06:32:37;;;;;;;;;47.75;38.75;;;;;;;;5036284;28;48749;-71
2021/12/16 06:35:02;;;;;;;;;53.75;45.25;;;;;;;;5054501;28;45409;-71
2021/12/16 06:37:28;;;;;;;;;55.25;47.00;;;;;;;;5052468;28;45464;-69
2021/12/16 06:39:53;;;;;;;;;50.25;43.75;;;;;;;;5052604;28;45515;-69
2021/12/16 06:42:19;;;;;;;;;57.25;45.75;;;;;;;;5051000;28;47601;-70
2021/12/16 06:44:51;;;;;;;;;51.75;42.50;;;;;;;;5053819;28;45438;-71
2021/12/16 06:47:22;;;;;;;;;52.75;44.50;;;;;;;;5049596;28;45454;-71
2021/12/16 06:49:49;;;;;;;;;52.00;43.25;;;;;;;;5048635;28;45369;-71
2021/12/16 06:52:18;;;;;;;;;49.25;41.25;;;;;;;;5044819;28;45438;-73
2021/12/16 06:57:42;;;;;;;;;50.25;42.00;;;;;;;;5052253;28;45517;-72
2021/12/16 07:00:14;;;;;;;;;54.25;44.50;;;;;;;;5052780;28;45184;-71
2021/12/16 07:05:10;;;;;;;;;57.25;46.50;;;;;;;;5050217;28;45521;-71
2021/12/16 07:07:35;;;;;;;;;50.25;41.50;;;;;;;;5057175;28;45253;-72
2021/12/16 07:10:01;;;;;;;;;53.50;44.00;;;;;;;;5037818;28;45289;-72
2021/12/16 07:12:35;;;;;;;;;54.00;44.50;;;;;;;;5057262;28;46214;-72
2021/12/16 07:15:03;;;;;;;;;58.00;47.75;;;;;;;;5056950;28;45598;-70
2021/12/16 07:17:28;;;;;;;;;54.75;44.75;;;;;;;;5038791;28;45461;-72
2021/12/16 07:19:53;;;;;;;;;56.25;46.75;;;;;;;;5072792;28;45610;-71
2021/12/16 07:22:19;;;;;;;;;52.25;44.25;;;;;;;;5057504;28;45605;-71
2021/12/16 07:24:44;;;;;;;;;56.75;46.00;;;;;;;;5057816;28;45427;-72
2021/12/16 07:27:10;;;;;;;;;52.50;43.25;;;;;;;;5039326;28;45391;-72
2021/12/16 07:29:35;;;;;;;;;54.00;46.00;;;;;;;;5057296;28;45394;-72
2021/12/16 07:32:01;;;;;;;;;50.75;43.50;;;;;;;;5057299;28;46642;-73
2021/12/16 07:34:27;;;;;;;;;53.50;45.00;;;;;;;;5057307;28;45400;-73
2021/12/16 07:36:52;;;;;;;;;57.25;46.25;;;;;;;;5057394;28;45957;-72
2021/12/16 07:39:19;;;;;;;;;54.00;45.00;;;;;;;;5057743;28;45313;-73
2021/12/16 07:41:47;;;;;;;;;55.50;45.50;;;;;;;;5038903;28;46610;-72
2021/12/16 07:44:13;;;;;;;;;51.25;43.00;;;;;;;;5056611;28;45307;-71
2021/12/16 07:46:47;;;;;;;;;52.00;44.25;;;;;;;;5057097;28;45394;-74
2021/12/16 07:49:18;;;;;;;;;53.50;45.25;;;;;;;;5057373;28;45405;-73
2021/12/16 07:51:43;;;;;;;;;55.00;44.25;;;;;;;;5052746;28;46379;-73
2021/12/16 07:54:10;;;;;;;;;53.25;45.25;;;;;;;;5056781;28;45393;-73
2021/12/16 07:56:35;;;;;;;;;43.00;38.50;;;;;;;;5038450;28;45764;-74
2021/12/16 07:59:00;;;;;;;;;55.25;46.75;;;;;;;;5072149;27;45507;-73
2021/12/16 08:01:27;;;;;;;;;55.00;47.50;;;;;;;;5056551;28;45552;-73
2021/12/16 08:03:53;;;;;;;;;56.00;45.00;;;;;;;;5038330;28;45546;-74
2021/12/16 08:06:22;;;;;;;;;60.25;48.25;;;;;;;;5038916;28;45471;-71
2021/12/16 08:08:48;;;;;;;;;55.00;46.25;;;;;;;;5037370;28;45439;-72
2021/12/16 08:11:14;;;;;;;;;51.50;42.00;;;;;;;;5056052;28;45727;-73
2021/12/16 08:13:39;;;;;;;;;60.00;48.25;;;;;;;;5038207;28;45749;-72
2021/12/16 08:16:05;;;;;;;;;60.00;48.00;;;;;;;;5038618;28;45421;-72
2021/12/16 08:18:31;;;;;;;;;58.50;48.25;;;;;;;;5054246;28;45362;-72
2021/12/16 08:20:57;;;;;;;;;54.75;44.00;;;;;;;;5053179;28;46230;-72
2021/12/16 08:23:22;;;;;;;;;58.75;48.50;;;;;;;;5036865;28;45666;-72
2021/12/16 08:25:48;;;;;;;;;54.50;43.25;;;;;;;;5051005;28;45365;-71
2021/12/16 08:28:13;;;;;;;;;55.00;46.00;;;;;;;;5036451;28;45390;-70
2021/12/16 08:30:40;;;;;;;;;56.75;47.75;;;;;;;;5036009;28;47367;-72
2021/12/16 08:33:09;;;;;;;;;55.75;47.50;;;;;;;;5042308;28;47436;-72
2021/12/16 08:35:35;;;;;;;;;58.75;48.25;;;;;;;;5077131;27;45443;-71
2021/12/16 08:38:01;;;;;;;;;59.75;49.00;;;;;;;;5035296;28;45679;-71
2021/12/16 08:40:27;;;;;;;;;54.75;46.00;;;;;;;;5037677;28;47661;-72
2021/12/16 08:42:52;;;;;;;;;59.75;49.50;;;;;;;;5055797;28;45799;-72
2021/12/16 08:45:20;;;;;;;;;62.75;50.25;;;;;;;;5056433;28;45427;-71
2021/12/16 08:47:46;;;;;;;;;59.00;49.00;;;;;;;;5055232;28;45452;-71
2021/12/16 08:50:12;;;;;;;;;55.50;46.00;;;;;;;;5055797;28;45572;-69
2021/12/16 08:52:37;;;;;;;;;63.50;50.50;;;;;;;;5055910;28;45411;-72
2021/12/16 08:55:03;;;;;;;;;58.75;49.25;;;;;;;;5036343;28;45474;-72
2021/12/16 08:57:29;;;;;;;;;57.50;48.00;;;;;;;;5037831;28;45506;-71
2021/12/16 08:59:54;;;;;;;;;54.50;46.25;;;;;;;;5037046;28;47612;-71
2021/12/16 09:02:22;;;;;;;;;59.00;48.75;;;;;;;;5055820;28;45448;-71
2021/12/16 09:04:47;;;;;;;;;60.50;49.25;;;;;;;;5037564;28;45627;-71
2021/12/16 09:07:13;;;;;;;;;61.75;50.00;;;;;;;;5056115;28;45907;-70
2021/12/16 09:09:39;;;;;;;;;57.50;47.75;;;;;;;;5056297;28;45471;-71
2021/12/16 09:12:13;;;;;;;;;;;;;;;;;;;;;
2021/12/16 09:14:36;;;;;;;;;63.25;47.75;;;;;;;;5054655;28;45516;-70
2021/12/16 09:17:02;;;;;;;;;60.75;48.00;;;;;;;;5037421;28;45217;-70
2021/12/16 09:19:27;;;;;;;;;62.25;50.25;;;;;;;;5037153;28;47763;-70
2021/12/16 09:21:53;;;;;;;;;59.25;49.75;;;;;;;;5037525;28;45235;-71
2021/12/16 09:24:18;;;;;;;;;61.50;48.50;;;;;;;;5054996;28;45354;-71
2021/12/16 09:26:43;;;;;;;;;57.50;48.00;;;;;;;;5036276;28;45597;-71
2021/12/16 09:29:09;;;;;;;;;65.50;52.00;;;;;;;;5035743;28;47493;-71
2021/12/16 09:31:34;;;;;;;;;60.75;49.75;;;;;;;;5037223;28;45473;-71
2021/12/16 09:34:06;;;;;;;;;61.50;48.75;;;;;;;;5055046;28;45431;-71
2021/12/16 09:36:32;;;;;;;;;59.75;49.00;;;;;;;;5037711;28;45324;-70
2021/12/16 09:38:57;;;;;;;;;60.50;49.50;;;;;;;;5054812;28;46465;-72
2021/12/16 09:41:23;;;;;;;;;64.00;51.50;;;;;;;;5036767;28;45544;-72
2021/12/16 09:43:50;;;;;;;;;63.00;51.25;;;;;;;;5036851;28;45369;-70
2021/12/16 09:46:17;;;;;;;;;64.25;52.25;;;;;;;;5039031;28;45478;-72
2021/12/16 09:48:42;;;;;;;;;56.00;46.50;;;;;;;;5037250;28;47653;-71
2021/12/16 09:51:09;;;;;;;;;60.75;49.00;;;;;;;;5036698;28;45378;-71
2021/12/16 09:53:36;;;;;;;;;59.25;49.00;;;;;;;;5036930;28;45483;-71
2021/12/16 09:56:02;;;;;;;;;61.50;49.25;;;;;;;;5036750;28;45420;-71
2021/12/16 09:58:29;;;;;;;;;57.00;47.50;;;;;;;;5036759;28;47799;-72
2021/12/16 10:00:54;;;;;;;;;59.25;48.00;;;;;;;;5054663;28;45311;-71
2021/12/16 10:03:20;;;;;;;;;57.25;47.75;;;;;;;;5052718;28;45470;-71
2021/12/16 10:05:46;;;;;;;;;58.50;48.50;;;;;;;;5037482;28;45424;-68
2021/12/16 10:08:11;;;;;;;;;60.25;47.00;;;;;;;;5036636;28;48379;-71
2021/12/16 10:10:37;;;;;;;;;57.25;46.50;;;;;;;;5054679;28;45401;-70
2021/12/16 10:13:04;;;;;;;;;58.25;48.00;;;;;;;;5036916;28;45347;-71
2021/12/16 10:17:57;;;;;;;;;60.00;47.50;;;;;;;;5054487;28;45537;-71
2021/12/16 10:20:27;;;;;;;;;61.50;48.00;;;;;;;;5036004;28;45462;-70
2021/12/16 10:23:00;;;;;;;;;59.00;49.25;;;;;;;;5054764;28;45404;-72
2021/12/16 10:25:30;;;;;;;;;57.50;47.50;;;;;;;;5054899;28;45517;-70
2021/12/16 10:27:58;;;;;;;;;62.50;50.50;;;;;;;;5036049;28;47475;-69
2021/12/16 10:30:24;;;;;;;;;62.00;48.50;;;;;;;;5054662;28;45512;-70
2021/12/16 10:32:50;;;;;;;;;62.00;49.25;;;;;;;;5054109;28;45533;-71
2021/12/16 10:35:19;;;;;;;;;63.50;50.00;;;;;;;;5036590;28;45577;-71
2021/12/16 10:37:52;;;;;;;;;59.50;50.00;;;;;;;;5039853;28;48643;-71
2021/12/16 10:40:36;;;;;;;;;63.00;50.75;;;;;;;;5049658;28;45949;-71
2021/12/16 10:43:04;;;;;;;;;62.25;50.25;;;;;;;;5054748;28;45366;-71
2021/12/16 10:45:32;;;;;;;;;61.25;49.00;;;;;;;;5055146;28;45532;-70
2021/12/16 10:48:06;;;;;;;;;63.25;51.00;;;;;;;;5057328;28;46045;-71
2021/12/16 10:50:46;;;;;;;;;64.00;53.25;;;;;;;;5057659;28;45421;-70
2021/12/16 10:53:11;;;;;;;;;65.75;52.75;;;;;;;;5039405;28;45480;-71
2021/12/16 10:55:53;;;;;;;;;64.75;52.75;;;;;;;;5039640;28;45507;-71
2021/12/16 10:58:18;;;;;;;;;64.50;53.00;;;;;;;;5057213;28;47545;-70
2021/12/16 11:00:44;;;;;;;;;59.50;50.50;;;;;;;;5053850;28;45425;-71
2021/12/16 11:03:09;;;;;;;;;61.25;49.50;;;;;;;;5039408;28;45466;-70
2021/12/16 11:05:34;;;;;;;;;58.00;47.25;;;;;;;;5057421;28;45460;-70
2021/12/16 11:08:00;;;;;;;;;57.25;47.00;;;;;;;;5057567;28;45480;-70
2021/12/16 11:10:27;;;;;;;;;58.00;47.75;;;;;;;;5039639;28;45333;-68
2021/12/16 11:12:52;;;;;;;;;63.00;51.00;;;;;;;;5055636;28;45374;-67
2021/12/16 11:15:17;;;;;;;;;56.50;47.50;;;;;;;;5053969;28;45591;-68
2021/12/16 11:17:44;;;;;;;;;57.25;47.50;;;;;;;;5035765;28;48471;-68
2021/12/16 11:20:10;;;;;;;;;60.75;49.25;;;;;;;;5054850;28;45996;-68
2021/12/16 11:22:36;;;;;;;;;60.25;48.00;;;;;;;;5057425;28;45472;-68
2021/12/16 11:25:20;;;;;;;;;64.50;50.50;;;;;;;;5057290;28;45424;-68
2021/12/16 11:27:49;;;;;;;;;54.00;45.75;;;;;;;;5035549;28;48823;-68
2021/12/16 11:30:27;;;;;;;;;54.75;45.00;;;;;;;;5039022;28;45553;-66
2021/12/16 11:32:53;;;;;;;;;49.75;42.25;;;;;;;;5040140;28;45395;-69
2021/12/16 11:35:29;;;;;;;;;44.00;36.25;;;;;;;;5056417;28;44942;-70
2021/12/16 11:37:55;;;;;;;;;38.75;32.25;;;;;;;;5056572;28;46577;-69
2021/12/16 11:40:21;;;;;;;;;36.25;31.50;;;;;;;;5057020;28;45572;-69
2021/12/16 11:43:19;;;;;;;;;34.50;32.00;;;;;;;;5046019;28;46347;-69
2021/12/16 11:45:44;;;;;;;;;35.50;33.50;;;;;;;;4979088;28;45587;-71
2021/12/16 11:48:25;;;;;;;;;29.50;29.00;;;;;;;;4992429;28;48641;-71
2021/12/16 11:51:00;;;;;;;;;40.00;35.25;;;;;;;;4978004;28;45635;-69
2021/12/16 11:53:33;;;;;;;;;48.50;39.75;;;;;;;;4978271;28;45565;-70
2021/12/16 11:55:59;;;;;;;;;40.00;33.50;;;;;;;;4978054;28;45436;-68
2021/12/16 11:58:28;;;;;;;;;40.75;36.00;;;;;;;;4977654;28;47457;-69
2021/12/16 12:00:54;;;;;;;;;33.50;31.50;;;;;;;;4994364;28;45352;-68
2021/12/16 12:03:19;;;;;;;;;33.25;31.25;;;;;;;;4994920;28;45456;-68
2021/12/16 12:05:46;;;;;;;;;26.25;23.50;;;;;;;;4994950;28;45316;-67
2021/12/16 12:08:31;;;;;;;;;37.00;32.75;;;;;;;;4978054;28;49005;-69
2021/12/16 12:11:06;;;;;;;;;25.75;24.00;;;;;;;;4994017;28;45561;-68
2021/12/16 12:13:39;;;;;;;;;27.50;26.00;;;;;;;;4976719;28;45504;-68
2021/12/16 12:16:07;;;;;;;;;35.50;30.75;;;;;;;;4993647;28;45280;-68
2021/12/16 12:18:47;;;;;;;;;31.25;29.25;;;;;;;;4978522;28;47430;-69
2021/12/16 12:21:15;;;;;;;;;29.75;28.25;;;;;;;;5021861;28;45307;-69
2021/12/16 12:23:41;;;;;;;;;32.25;30.00;;;;;;;;5037363;28;45385;-69
2021/12/16 12:26:06;;;;;;;;;34.25;29.25;;;;;;;;5055805;28;45177;-68
2021/12/16 12:28:31;;;;;;;;;33.25;28.00;;;;;;;;5055377;28;45623;-69
2021/12/16 12:30:57;;;;;;;;;32.75;29.75;;;;;;;;5053594;28;45401;-68
2021/12/16 12:33:22;;;;;;;;;35.75;32.50;;;;;;;;5056072;28;45611;-69
2021/12/16 12:35:47;;;;;;;;;36.50;33.75;;;;;;;;5056470;28;45289;-69
2021/12/16 12:38:13;;;;;;;;;36.50;32.00;;;;;;;;5055646;28;45527;-69
2021/12/16 12:40:39;;;;;;;;;32.25;31.00;;;;;;;;5056003;28;45495;-69
2021/12/16 12:43:05;;;;;;;;;32.25;30.75;;;;;;;;5056403;28;45528;-69
2021/12/16 12:45:34;;;;;;;;;35.00;31.50;;;;;;;;5056362;28;45796;-69
2021/12/16 12:48:00;;;;;;;;;31.50;31.00;;;;;;;;5023753;28;48575;-69
2021/12/16 12:50:30;;;;;;;;;32.75;32.00;;;;;;;;5038314;28;45446;-70
2021/12/16 12:52:59;;;;;;;;;35.50;30.50;;;;;;;;5055842;28;45429;-68
2021/12/16 12:55:31;;;;;;;;;31.50;27.25;;;;;;;;5055629;28;45371;-68
2021/12/16 12:58:08;;;;;;;;;25.75;25.00;;;;;;;;5037399;28;47523;-69
2021/12/16 13:00:38;;;;;;;;;30.00;29.00;;;;;;;;5046728;28;45220;-68
2021/12/16 13:03:06;;;;;;;;;30.75;27.75;;;;;;;;5028118;28;45767;-70
2021/12/16 13:05:31;;;;;;;;;18.75;18.00;;;;;;;;5048583;28;45595;-67
2021/12/16 13:08:00;;;;;;;;;27.00;27.00;;;;;;;;5032545;28;47666;-68
2021/12/16 13:10:31;;;;;;;;;30.50;27.50;;;;;;;;5029562;28;45765;-66
2021/12/16 13:13:22;;;;;;;;;26.75;26.00;;;;;;;;5052558;28;45302;-67
2021/12/16 13:15:55;;;;;;;;;26.50;22.00;;;;;;;;5052449;28;45260;-67
2021/12/16 13:23:53;;;;;;;;;28.75;26.50;;;;;;;;5055094;28;45430;-69
2021/12/16 13:28:58;;;;;;;;;23.75;23.25;;;;;;;;5053320;28;45843;-70
2021/12/16 13:31:23;;;;;;;;;30.75;25.25;;;;;;;;5039808;28;45552;-70
2021/12/16 13:33:55;;;;;;;;;29.50;26.50;;;;;;;;5055883;28;45531;-69
2021/12/16 13:36:39;;;;;;;;;30.25;24.75;;;;;;;;5055733;28;45478;-70
2021/12/16 13:39:07;;;;;;;;;30.00;26.50;;;;;;;;5036759;28;47658;-70
2021/12/16 13:41:34;;;;;;;;;32.75;26.75;;;;;;;;5036278;28;45368;-70
2021/12/16 13:44:07;;;;;;;;;31.75;27.50;;;;;;;;5055116;28;45362;-70
2021/12/16 13:46:54;;;;;;;;;28.25;26.25;;;;;;;;5053881;28;45623;-70
2021/12/16 14:03:43;;;;;;;;;27.50;27.00;;;;;;;;5054648;28;45342;-70
2021/12/16 14:08:43;;;;;;;;;33.25;31.75;;;;;;;;5054683;28;45417;-69
2021/12/16 14:38:37;;;;;;;;;25.25;24.25;;;;;;;;5050166;28;45295;-69
2021/12/16 14:43:40;;;;;;;;;29.25;27.75;;;;;;;;5049887;28;46391;-69
2021/12/16 14:46:08;;;;;;;;;32.00;30.50;;;;;;;;5054225;28;45550;-69
2021/12/16 14:48:35;;;;;;;;;33.25;31.00;;;;;;;;5036890;28;45401;-68
2021/12/16 14:51:11;;;;;;;;;32.25;30.50;;;;;;;;5035669;28;45588;-71
2021/12/16 14:53:47;;;;;;;;;36.00;31.75;;;;;;;;5053960;28;46729;-70
2021/12/16 14:56:15;;;;;;;;;31.25;29.50;;;;;;;;5054204;28;45430;-70
2021/12/16 14:58:44;;;;;;;;;23.25;21.50;;;;;;;;5054393;28;45399;-71
2021/12/16 15:01:12;;;;;;;;;31.75;30.75;;;;;;;;5036072;28;45450;-70
2021/12/16 15:03:40;;;;;;;;;34.25;31.50;;;;;;;;5036155;28;48477;-71
2021/12/16 15:06:08;;;;;;;;;33.50;31.50;;;;;;;;5035514;28;45943;-70
2021/12/16 15:11:08;;;;;;;;;38.25;34.00;;;;;;;;5053389;28;45427;-71
2021/12/16 15:13:43;;;;;;;;;34.75;32.75;;;;;;;;5068819;28;47642;-72
2021/12/16 15:16:40;;;;;;;;;31.25;31.00;;;;;;;;5035294;28;45769;-73
2021/12/16 15:43:50;;;;;;;;;41.75;36.50;;;;;;;;5057026;28;45427;-70
2021/12/16 15:46:16;;;;;;;;;36.00;32.50;;;;;;;;5057080;28;45302;-70
2021/12/16 15:48:44;;;;;;;;;37.75;32.25;;;;;;;;5039584;28;46111;-71
2021/12/16 15:51:10;;;;;;;;;38.50;33.00;;;;;;;;5038286;28;45386;-67
2021/12/16 15:53:38;;;;;;;;;37.75;34.75;;;;;;;;5056769;28;45379;-68
2021/12/16 15:56:08;;;;;;;;;40.75;35.00;;;;;;;;5056178;28;46203;-69
2021/12/16 15:58:35;;;;;;;;;34.25;31.00;;;;;;;;5056522;28;45494;-68
2021/12/16 16:01:04;;;;;;;;;39.25;34.50;;;;;;;;5038634;28;45415;-68
2021/12/16 16:03:30;;;;;;;;;35.00;33.75;;;;;;;;5038406;28;45597;-69
2021/12/16 16:05:57;;;;;;;;;40.50;34.75;;;;;;;;5056014;28;45694;-68
2021/12/16 16:08:24;;;;;;;;;40.00;35.50;;;;;;;;5056637;28;45367;-68
2021/12/16 16:10:53;;;;;;;;;33.75;31.25;;;;;;;;5056852;28;45357;-67
2021/12/16 16:13:20;;;;;;;;;37.50;33.75;;;;;;;;5040505;28;45448;-69
2021/12/16 16:15:48;;;;;;;;;39.50;34.00;;;;;;;;5052200;28;45306;-68
2021/12/16 16:18:33;;;;;;;;;46.50;38.00;;;;;;;;5037187;28;45169;-70
2021/12/16 16:21:00;;;;;;;;;47.25;38.75;;;;;;;;5037794;28;45494;-69
2021/12/16 16:23:27;;;;;;;;;45.25;38.50;;;;;;;;5055579;28;45362;-68
2021/12/16 16:25:53;;;;;;;;;38.50;34.50;;;;;;;;5052991;28;45717;-70
2021/12/16 16:28:20;;;;;;;;;46.00;36.00;;;;;;;;5053672;28;45372;-69
2021/12/16 16:30:45;;;;;;;;;37.25;34.25;;;;;;;;5050188;28;45787;-69
2021/12/16 16:33:13;;;;;;;;;48.00;39.50;;;;;;;;5053865;28;45620;-71
2021/12/16 16:35:44;;;;;;;;;39.00;34.50;;;;;;;;5053844;28;46472;-70
2021/12/16 16:38:11;;;;;;;;;37.75;35.25;;;;;;;;5035441;28;45631;-70
2021/12/16 16:40:38;;;;;;;;;40.25;36.00;;;;;;;;5035410;28;45512;-70
2021/12/16 16:43:15;;;;;;;;;43.75;37.25;;;;;;;;5053507;28;45431;-70
2021/12/16 16:45:41;;;;;;;;;36.00;32.50;;;;;;;;5053544;28;46623;-71
2021/12/16 16:48:16;;;;;;;;;45.75;36.75;;;;;;;;5068913;28;46278;-71
2021/12/16 16:50:41;;;;;;;;;41.75;35.50;;;;;;;;5053210;28;45771;-70
2021/12/16 16:53:06;;;;;;;;;43.75;37.75;;;;;;;;5035311;28;45704;-70
2021/12/16 16:55:33;;;;;;;;;40.00;34.25;;;;;;;;5053705;28;46374;-70
2021/12/16 16:58:00;;;;;;;;;45.50;36.50;;;;;;;;5053822;28;45620;-70
2021/12/16 17:00:31;;;;;;;;;39.75;35.25;;;;;;;;5035677;28;45470;-69
2021/12/16 17:02:59;;;;;;;;;46.50;37.00;;;;;;;;5053429;28;45532;-69
2021/12/16 17:05:27;;;;;;;;;41.00;36.75;;;;;;;;5053318;28;45796;-69
2021/12/16 17:07:57;;;;;;;;;43.50;35.75;;;;;;;;5034908;28;45580;-69
2021/12/16 17:10:22;;;;;;;;;40.25;35.75;;;;;;;;5053395;28;45623;-70
2021/12/16 17:12:47;;;;;;;;;39.25;35.50;;;;;;;;5053764;28;45787;-69
2021/12/16 17:15:31;;;;;;;;;41.00;36.25;;;;;;;;5053099;28;45988;-69
2021/12/16 17:17:56;;;;;;;;;49.00;36.75;;;;;;;;5034773;28;45725;-69
2021/12/16 17:20:21;;;;;;;;;42.50;37.25;;;;;;;;5053011;28;45449;-69
2021/12/16 17:22:50;;;;;;;;;37.25;35.25;;;;;;;;5053470;28;45859;-69
2021/12/16 17:25:17;;;;;;;;;42.75;35.25;;;;;;;;5035240;28;47791;-69
2021/12/16 17:27:45;;;;;;;;;39.50;35.25;;;;;;;;5053718;28;45668;-69
2021/12/16 17:30:15;;;;;;;;;36.00;32.25;;;;;;;;5052827;28;45541;-69
2021/12/16 17:32:41;;;;;;;;;38.25;34.00;;;;;;;;5052862;28;45531;-69
2021/12/16 17:35:09;;;;;;;;;43.50;37.75;;;;;;;;5052892;28;46598;-69
2021/12/16 17:38:00;;;;;;;;;37.50;33.00;;;;;;;;5052856;28;45470;-69
2021/12/16 17:40:32;;;;;;;;;40.25;34.75;;;;;;;;5032793;28;45558;-69
2021/12/16 17:42:59;;;;;;;;;40.50;35.75;;;;;;;;5035207;28;45773;-70
2021/12/16 17:45:33;;;;;;;;;42.75;35.00;;;;;;;;5034296;28;46839;-69
2021/12/16 17:48:01;;;;;;;;;46.50;36.75;;;;;;;;5052515;28;45443;-69
2021/12/16 17:50:31;;;;;;;;;31.75;30.25;;;;;;;;5035354;28;45489;-69
2021/12/16 17:52:57;;;;;;;;;36.25;33.25;;;;;;;;5052462;28;45584;-69
2021/12/16 17:55:25;;;;;;;;;30.50;28.50;;;;;;;;5052393;28;46533;-70
2021/12/16 17:57:54;;;;;;;;;31.75;31.50;;;;;;;;5035024;28;46638;-70
2021/12/16 18:00:25;;;;;;;;;34.75;33.75;;;;;;;;5053101;28;45723;-69
2021/12/16 18:02:51;;;;;;;;;30.50;28.75;;;;;;;;5031897;28;45674;-69
2021/12/16 18:05:17;;;;;;;;;30.00;28.50;;;;;;;;5047046;28;46184;-69
2021/12/16 18:07:42;;;;;;;;;35.00;31.75;;;;;;;;5034132;28;46614;-68
2021/12/16 18:10:09;;;;;;;;;32.00;28.75;;;;;;;;5052656;28;45811;-70
2021/12/16 18:12:34;;;;;;;;;36.75;31.50;;;;;;;;5033256;28;45474;-69
2021/12/16 18:15:05;;;;;;;;;39.50;32.00;;;;;;;;5051713;28;45578;-69
2021/12/16 18:17:33;;;;;;;;;26.25;25.50;;;;;;;;5052447;28;45607;-68
2021/12/16 18:20:34;;;;;;;;;29.00;28.00;;;;;;;;5052365;28;45496;-69
2021/12/16 18:23:01;;;;;;;;;29.50;28.25;;;;;;;;5008830;28;45610;-65
2021/12/16 18:25:29;;;;;;;;;33.50;30.25;;;;;;;;5009541;28;45886;-71